sensor_id;sensor_type;location;lat;lon;timestamp;P1;durP1;ratioP1;P2;durP2;ratioP2
78027;SDS011;67235;45.638;11.714;2023-03-01T00:02:04;16.60;;;7.35;;
78027;SDS011;67235;45.638;11.714;2023-03-01T00:04:30;21.52;;;8.40;;
78027;SDS011;67235;45.638;11.714;2023-03-01T00:06:56;20.37;;;8.33;;
78027;SDS011;67235;45.638;11.714;2023-03-01T00:09:22;25.52;;;9.90;;
78027;SDS011;67235;45.638;11.714;2023-03-01T00:11:48;25.02;;;9.05;;
78027;SDS011;67235;45.638;11.714;2023-03-01T00:14:13;26.40;;;10.10;;
78027;SDS011;67235;45.638;11.714;2023-03-01T00:16:42;25.77;;;10.30;;
78027;SDS011;67235;45.638;11.714;2023-03-01T00:19:11;22.20;;;10.13;;
78027;SDS011;67235;45.638;11.714;2023-03-01T00:21:39;24.52;;;9.90;;
78027;SDS011;67235;45.638;11.714;2023-03-01T00:24:05;21.42;;;9.35;;
78027;SDS011;67235;45.638;11.714;2023-03-01T00:26:32;19.20;;;8.27;;
78027;SDS011;67235;45.638;11.714;2023-03-01T00:28:58;19.42;;;9.27;;
78027;SDS011;67235;45.638;11.714;2023-03-01T00:31:25;21.50;;;8.75;;
78027;SDS011;67235;45.638;11.714;2023-03-01T00:33:54;21.15;;;8.50;;
78027;SDS011;67235;45.638;11.714;2023-03-01T00:36:22;19.10;;;8.33;;
78027;SDS011;67235;45.638;11.714;2023-03-01T00:38:52;18.88;;;8.15;;
78027;SDS011;67235;45.638;11.714;2023-03-01T00:41:19;15.68;;;7.40;;
78027;SDS011;67235;45.638;11.714;2023-03-01T00:43:47;17.80;;;8.20;;
78027;SDS011;67235;45.638;11.714;2023-03-01T00:46:14;19.13;;;8.18;;
78027;SDS011;67235;45.638;11.714;2023-03-01T00:48:42;18.27;;;8.40;;
78027;SDS011;67235;45.638;11.714;2023-03-01T00:51:09;20.05;;;8.70;;
78027;SDS011;67235;45.638;11.714;2023-03-01T00:53:36;17.77;;;8.23;;
78027;SDS011;67235;45.638;11.714;2023-03-01T00:56:02;19.17;;;8.95;;
78027;SDS011;67235;45.638;11.714;2023-03-01T00:58:29;18.15;;;8.60;;
78027;SDS011;67235;45.638;11.714;2023-03-01T01:00:55;21.80;;;9.27;;
78027;SDS011;67235;45.638;11.714;2023-03-01T01:03:21;22.08;;;8.50;;
78027;SDS011;67235;45.638;11.714;2023-03-01T01:05:49;19.37;;;9.10;;
78027;SDS011;67235;45.638;11.714;2023-03-01T01:08:18;20.00;;;9.00;;
78027;SDS011;67235;45.638;11.714;2023-03-01T01:10:45;18.88;;;8.57;;
78027;SDS011;67235;45.638;11.714;2023-03-01T01:13:12;22.77;;;9.07;;
78027;SDS011;67235;45.638;11.714;2023-03-01T01:15:37;19.52;;;8.05;;
78027;SDS011;67235;45.638;11.714;2023-03-01T01:18:03;21.10;;;9.05;;
78027;SDS011;67235;45.638;11.714;2023-03-01T01:20:29;21.27;;;9.38;;
78027;SDS011;67235;45.638;11.714;2023-03-01T01:22:55;20.07;;;9.43;;
78027;SDS011;67235;45.638;11.714;2023-03-01T01:25:21;21.35;;;9.27;;
78027;SDS011;67235;45.638;11.714;2023-03-01T01:27:50;28.13;;;9.95;;
78027;SDS011;67235;45.638;11.714;2023-03-01T01:30:16;21.20;;;8.90;;
78027;SDS011;67235;45.638;11.714;2023-03-01T01:32:42;18.33;;;8.82;;
78027;SDS011;67235;45.638;11.714;2023-03-01T01:35:08;22.20;;;9.55;;
78027;SDS011;67235;45.638;11.714;2023-03-01T01:37:34;20.55;;;9.43;;
78027;SDS011;67235;45.638;11.714;2023-03-01T01:40:01;19.33;;;8.53;;
78027;SDS011;67235;45.638;11.714;2023-03-01T01:42:29;20.60;;;8.68;;
78027;SDS011;67235;45.638;11.714;2023-03-01T01:47:52;19.67;;;8.68;;
78027;SDS011;67235;45.638;11.714;2023-03-01T01:50:20;21.83;;;9.20;;
78027;SDS011;67235;45.638;11.714;2023-03-01T01:52:47;17.20;;;8.77;;
78027;SDS011;67235;45.638;11.714;2023-03-01T01:55:16;23.27;;;10.02;;
78027;SDS011;67235;45.638;11.714;2023-03-01T01:57:52;20.95;;;9.82;;
78027;SDS011;67235;45.638;11.714;2023-03-01T02:00:25;20.70;;;10.13;;
78027;SDS011;67235;45.638;11.714;2023-03-01T02:03:26;24.47;;;9.67;;
78027;SDS011;67235;45.638;11.714;2023-03-01T02:05:53;18.90;;;8.13;;
78027;SDS011;67235;45.638;11.714;2023-03-01T02:08:26;22.35;;;8.75;;
78027;SDS011;67235;45.638;11.714;2023-03-01T02:10:56;19.10;;;8.52;;
78027;SDS011;67235;45.638;11.714;2023-03-01T02:13:24;16.75;;;8.48;;
78027;SDS011;67235;45.638;11.714;2023-03-01T02:15:51;20.40;;;8.63;;
78027;SDS011;67235;45.638;11.714;2023-03-01T02:18:18;17.40;;;8.15;;
78027;SDS011;67235;45.638;11.714;2023-03-01T02:23:29;23.67;;;9.38;;
78027;SDS011;67235;45.638;11.714;2023-03-01T02:28:36;17.20;;;8.13;;
78027;SDS011;67235;45.638;11.714;2023-03-01T02:31:07;21.88;;;8.23;;
78027;SDS011;67235;45.638;11.714;2023-03-01T02:33:55;20.02;;;8.82;;
78027;SDS011;67235;45.638;11.714;2023-03-01T02:36:23;18.35;;;8.52;;
78027;SDS011;67235;45.638;11.714;2023-03-01T02:38:55;19.67;;;9.10;;
78027;SDS011;67235;45.638;11.714;2023-03-01T02:41:24;19.37;;;8.13;;
78027;SDS011;67235;45.638;11.714;2023-03-01T02:43:52;20.50;;;8.88;;
78027;SDS011;67235;45.638;11.714;2023-03-01T02:46:20;19.00;;;8.02;;
78027;SDS011;67235;45.638;11.714;2023-03-01T02:48:49;17.67;;;8.50;;
78027;SDS011;67235;45.638;11.714;2023-03-01T02:56:45;18.38;;;8.13;;
78027;SDS011;67235;45.638;11.714;2023-03-01T02:59:14;17.17;;;7.32;;
78027;SDS011;67235;45.638;11.714;2023-03-01T03:01:45;17.63;;;7.60;;
78027;SDS011;67235;45.638;11.714;2023-03-01T03:04:13;15.63;;;7.05;;
78027;SDS011;67235;45.638;11.714;2023-03-01T03:06:44;18.13;;;8.43;;
78027;SDS011;67235;45.638;11.714;2023-03-01T03:09:12;18.58;;;8.07;;
78027;SDS011;67235;45.638;11.714;2023-03-01T03:11:38;18.08;;;8.00;;
78027;SDS011;67235;45.638;11.714;2023-03-01T03:14:06;17.20;;;7.63;;
78027;SDS011;67235;45.638;11.714;2023-03-01T03:16:47;16.73;;;7.63;;
78027;SDS011;67235;45.638;11.714;2023-03-01T03:19:15;18.70;;;7.03;;
78027;SDS011;67235;45.638;11.714;2023-03-01T03:21:42;20.15;;;7.95;;
78027;SDS011;67235;45.638;11.714;2023-03-01T03:24:08;18.38;;;7.75;;
78027;SDS011;67235;45.638;11.714;2023-03-01T03:26:34;15.87;;;7.73;;
78027;SDS011;67235;45.638;11.714;2023-03-01T03:29:00;16.95;;;8.27;;
78027;SDS011;67235;45.638;11.714;2023-03-01T03:31:26;18.38;;;7.68;;
78027;SDS011;67235;45.638;11.714;2023-03-01T03:33:52;17.40;;;7.17;;
78027;SDS011;67235;45.638;11.714;2023-03-01T03:36:19;19.95;;;7.35;;
78027;SDS011;67235;45.638;11.714;2023-03-01T03:38:47;17.70;;;7.22;;
78027;SDS011;67235;45.638;11.714;2023-03-01T03:41:14;16.58;;;7.88;;
78027;SDS011;67235;45.638;11.714;2023-03-01T03:43:40;15.90;;;7.20;;
78027;SDS011;67235;45.638;11.714;2023-03-01T03:46:08;19.53;;;8.30;;
78027;SDS011;67235;45.638;11.714;2023-03-01T03:48:39;18.27;;;7.50;;
78027;SDS011;67235;45.638;11.714;2023-03-01T03:51:09;16.42;;;7.38;;
78027;SDS011;67235;45.638;11.714;2023-03-01T03:53:36;16.05;;;7.15;;
78027;SDS011;67235;45.638;11.714;2023-03-01T03:56:02;14.70;;;7.45;;
78027;SDS011;67235;45.638;11.714;2023-03-01T03:58:28;14.70;;;7.40;;
78027;SDS011;67235;45.638;11.714;2023-03-01T04:00:55;17.92;;;7.70;;
78027;SDS011;67235;45.638;11.714;2023-03-01T04:03:22;18.85;;;7.05;;
78027;SDS011;67235;45.638;11.714;2023-03-01T04:05:50;16.83;;;7.63;;
78027;SDS011;67235;45.638;11.714;2023-03-01T04:08:17;17.00;;;7.20;;
78027;SDS011;67235;45.638;11.714;2023-03-01T04:10:46;19.27;;;7.88;;
78027;SDS011;67235;45.638;11.714;2023-03-01T04:13:15;21.23;;;8.48;;
78027;SDS011;67235;45.638;11.714;2023-03-01T04:15:46;22.40;;;8.52;;
78027;SDS011;67235;45.638;11.714;2023-03-01T04:18:17;19.63;;;8.25;;
78027;SDS011;67235;45.638;11.714;2023-03-01T04:20:45;16.80;;;7.73;;
78027;SDS011;67235;45.638;11.714;2023-03-01T04:23:18;18.02;;;7.38;;
78027;SDS011;67235;45.638;11.714;2023-03-01T04:28:19;16.00;;;7.43;;
78027;SDS011;67235;45.638;11.714;2023-03-01T04:30:51;18.23;;;8.18;;
78027;SDS011;67235;45.638;11.714;2023-03-01T04:33:18;16.57;;;7.77;;
78027;SDS011;67235;45.638;11.714;2023-03-01T04:35:44;17.52;;;7.40;;
78027;SDS011;67235;45.638;11.714;2023-03-01T04:38:10;17.50;;;7.70;;
78027;SDS011;67235;45.638;11.714;2023-03-01T04:40:36;20.80;;;8.63;;
78027;SDS011;67235;45.638;11.714;2023-03-01T04:43:02;17.55;;;7.53;;
78027;SDS011;67235;45.638;11.714;2023-03-01T04:45:29;17.70;;;7.50;;
78027;SDS011;67235;45.638;11.714;2023-03-01T04:47:59;15.65;;;6.93;;
78027;SDS011;67235;45.638;11.714;2023-03-01T04:50:25;17.30;;;7.13;;
78027;SDS011;67235;45.638;11.714;2023-03-01T04:52:51;15.30;;;6.65;;
78027;SDS011;67235;45.638;11.714;2023-03-01T04:55:17;17.57;;;7.40;;
78027;SDS011;67235;45.638;11.714;2023-03-01T04:57:43;18.08;;;7.10;;
78027;SDS011;67235;45.638;11.714;2023-03-01T05:00:11;16.95;;;7.47;;
78027;SDS011;67235;45.638;11.714;2023-03-01T05:03:05;16.58;;;7.72;;
78027;SDS011;67235;45.638;11.714;2023-03-01T05:05:32;16.02;;;7.25;;
78027;SDS011;67235;45.638;11.714;2023-03-01T05:08:02;17.23;;;7.93;;
78027;SDS011;67235;45.638;11.714;2023-03-01T05:10:31;16.35;;;6.80;;
78027;SDS011;67235;45.638;11.714;2023-03-01T05:13:00;16.58;;;7.50;;
78027;SDS011;67235;45.638;11.714;2023-03-01T05:15:28;17.08;;;7.55;;
78027;SDS011;67235;45.638;11.714;2023-03-01T05:17:55;19.50;;;7.72;;
78027;SDS011;67235;45.638;11.714;2023-03-01T05:20:24;16.67;;;7.27;;
78027;SDS011;67235;45.638;11.714;2023-03-01T05:22:51;18.92;;;7.30;;
78027;SDS011;67235;45.638;11.714;2023-03-01T05:25:19;18.17;;;8.02;;
78027;SDS011;67235;45.638;11.714;2023-03-01T05:27:46;19.30;;;8.30;;
78027;SDS011;67235;45.638;11.714;2023-03-01T05:30:13;17.30;;;8.25;;
78027;SDS011;67235;45.638;11.714;2023-03-01T05:32:43;19.40;;;8.13;;
78027;SDS011;67235;45.638;11.714;2023-03-01T05:35:13;16.20;;;6.75;;
78027;SDS011;67235;45.638;11.714;2023-03-01T05:37:44;18.40;;;7.75;;
78027;SDS011;67235;45.638;11.714;2023-03-01T05:40:11;18.63;;;8.00;;
78027;SDS011;67235;45.638;11.714;2023-03-01T05:42:47;19.08;;;8.32;;
78027;SDS011;67235;45.638;11.714;2023-03-01T05:45:15;18.03;;;7.80;;
78027;SDS011;67235;45.638;11.714;2023-03-01T05:47:42;17.45;;;8.88;;
78027;SDS011;67235;45.638;11.714;2023-03-01T05:50:13;22.05;;;9.65;;
78027;SDS011;67235;45.638;11.714;2023-03-01T05:52:45;19.05;;;9.45;;
78027;SDS011;67235;45.638;11.714;2023-03-01T05:55:16;23.02;;;10.02;;
78027;SDS011;67235;45.638;11.714;2023-03-01T05:57:43;27.63;;;10.00;;
78027;SDS011;67235;45.638;11.714;2023-03-01T06:00:09;25.08;;;10.35;;
78027;SDS011;67235;45.638;11.714;2023-03-01T06:02:36;33.90;;;10.60;;
78027;SDS011;67235;45.638;11.714;2023-03-01T06:05:03;26.40;;;9.27;;
78027;SDS011;67235;45.638;11.714;2023-03-01T06:07:30;25.25;;;9.57;;
78027;SDS011;67235;45.638;11.714;2023-03-01T06:09:56;21.23;;;8.33;;
78027;SDS011;67235;45.638;11.714;2023-03-01T06:12:22;21.42;;;9.90;;
78027;SDS011;67235;45.638;11.714;2023-03-01T06:14:48;16.77;;;8.00;;
78027;SDS011;67235;45.638;11.714;2023-03-01T06:17:14;17.90;;;7.33;;
78027;SDS011;67235;45.638;11.714;2023-03-01T06:19:40;18.33;;;8.13;;
78027;SDS011;67235;45.638;11.714;2023-03-01T06:22:05;22.43;;;8.37;;
78027;SDS011;67235;45.638;11.714;2023-03-01T06:24:32;17.65;;;7.75;;
78027;SDS011;67235;45.638;11.714;2023-03-01T06:26:58;19.05;;;7.13;;
78027;SDS011;67235;45.638;11.714;2023-03-01T06:29:24;18.27;;;8.23;;
78027;SDS011;67235;45.638;11.714;2023-03-01T06:31:49;19.30;;;8.63;;
78027;SDS011;67235;45.638;11.714;2023-03-01T06:34:15;19.20;;;8.27;;
78027;SDS011;67235;45.638;11.714;2023-03-01T06:36:41;20.60;;;8.88;;
78027;SDS011;67235;45.638;11.714;2023-03-01T06:39:07;20.88;;;9.27;;
78027;SDS011;67235;45.638;11.714;2023-03-01T06:41:33;25.25;;;11.70;;
78027;SDS011;67235;45.638;11.714;2023-03-01T06:43:59;19.33;;;9.57;;
78027;SDS011;67235;45.638;11.714;2023-03-01T06:46:26;17.67;;;8.48;;
78027;SDS011;67235;45.638;11.714;2023-03-01T06:48:53;19.10;;;9.32;;
78027;SDS011;67235;45.638;11.714;2023-03-01T06:51:20;19.45;;;8.93;;
78027;SDS011;67235;45.638;11.714;2023-03-01T06:53:48;19.40;;;7.93;;
78027;SDS011;67235;45.638;11.714;2023-03-01T06:56:14;31.17;;;15.65;;
78027;SDS011;67235;45.638;11.714;2023-03-01T06:58:40;26.42;;;13.38;;
78027;SDS011;67235;45.638;11.714;2023-03-01T07:01:06;24.63;;;10.07;;
78027;SDS011;67235;45.638;11.714;2023-03-01T07:03:32;21.17;;;9.82;;
78027;SDS011;67235;45.638;11.714;2023-03-01T07:05:58;18.90;;;9.65;;
78027;SDS011;67235;45.638;11.714;2023-03-01T07:08:24;20.80;;;9.90;;
78027;SDS011;67235;45.638;11.714;2023-03-01T07:10:56;22.45;;;11.80;;
78027;SDS011;67235;45.638;11.714;2023-03-01T07:13:23;24.35;;;11.35;;
78027;SDS011;67235;45.638;11.714;2023-03-01T07:15:50;44.38;;;23.42;;
78027;SDS011;67235;45.638;11.714;2023-03-01T07:18:19;50.57;;;27.03;;
78027;SDS011;67235;45.638;11.714;2023-03-01T07:20:45;29.27;;;14.90;;
78027;SDS011;67235;45.638;11.714;2023-03-01T07:23:13;20.20;;;9.85;;
78027;SDS011;67235;45.638;11.714;2023-03-01T07:25:40;20.47;;;9.70;;
78027;SDS011;67235;45.638;11.714;2023-03-01T07:28:06;21.67;;;11.15;;
78027;SDS011;67235;45.638;11.714;2023-03-01T07:30:32;19.73;;;10.30;;
78027;SDS011;67235;45.638;11.714;2023-03-01T07:32:59;35.55;;;19.65;;
78027;SDS011;67235;45.638;11.714;2023-03-01T07:35:25;30.93;;;18.77;;
78027;SDS011;67235;45.638;11.714;2023-03-01T07:37:52;24.27;;;10.80;;
78027;SDS011;67235;45.638;11.714;2023-03-01T07:40:19;19.88;;;9.98;;
78027;SDS011;67235;45.638;11.714;2023-03-01T07:42:45;24.67;;;11.10;;
78027;SDS011;67235;45.638;11.714;2023-03-01T07:45:11;22.10;;;9.90;;
78027;SDS011;67235;45.638;11.714;2023-03-01T07:47:38;20.70;;;10.45;;
78027;SDS011;67235;45.638;11.714;2023-03-01T07:50:04;22.17;;;10.40;;
78027;SDS011;67235;45.638;11.714;2023-03-01T07:52:31;21.95;;;10.30;;
78027;SDS011;67235;45.638;11.714;2023-03-01T07:54:58;23.38;;;10.60;;
78027;SDS011;67235;45.638;11.714;2023-03-01T07:57:27;22.63;;;12.00;;
78027;SDS011;67235;45.638;11.714;2023-03-01T07:59:53;21.05;;;10.35;;
78027;SDS011;67235;45.638;11.714;2023-03-01T08:02:20;21.85;;;10.88;;
78027;SDS011;67235;45.638;11.714;2023-03-01T08:04:48;24.08;;;11.18;;
78027;SDS011;67235;45.638;11.714;2023-03-01T08:07:16;19.73;;;9.82;;
78027;SDS011;67235;45.638;11.714;2023-03-01T08:09:43;20.43;;;10.20;;
78027;SDS011;67235;45.638;11.714;2023-03-01T08:12:10;21.90;;;10.18;;
78027;SDS011;67235;45.638;11.714;2023-03-01T08:14:36;20.13;;;11.05;;
78027;SDS011;67235;45.638;11.714;2023-03-01T08:17:01;19.98;;;10.73;;
78027;SDS011;67235;45.638;11.714;2023-03-01T08:19:28;20.70;;;11.13;;
78027;SDS011;67235;45.638;11.714;2023-03-01T08:21:54;18.60;;;10.23;;
78027;SDS011;67235;45.638;11.714;2023-03-01T08:24:23;18.17;;;10.30;;
78027;SDS011;67235;45.638;11.714;2023-03-01T08:26:49;18.13;;;9.48;;
78027;SDS011;67235;45.638;11.714;2023-03-01T08:29:15;17.55;;;8.93;;
78027;SDS011;67235;45.638;11.714;2023-03-01T08:31:41;17.53;;;8.30;;
78027;SDS011;67235;45.638;11.714;2023-03-01T08:34:08;15.75;;;8.15;;
78027;SDS011;67235;45.638;11.714;2023-03-01T08:36:37;16.97;;;8.60;;
78027;SDS011;67235;45.638;11.714;2023-03-01T08:39:05;14.00;;;7.57;;
78027;SDS011;67235;45.638;11.714;2023-03-01T08:41:32;14.10;;;7.82;;
78027;SDS011;67235;45.638;11.714;2023-03-01T08:43:58;15.32;;;7.82;;
78027;SDS011;67235;45.638;11.714;2023-03-01T08:46:24;17.20;;;9.30;;
78027;SDS011;67235;45.638;11.714;2023-03-01T08:48:55;16.85;;;9.43;;
78027;SDS011;67235;45.638;11.714;2023-03-01T08:51:21;15.65;;;7.85;;
78027;SDS011;67235;45.638;11.714;2023-03-01T08:53:48;15.50;;;7.72;;
78027;SDS011;67235;45.638;11.714;2023-03-01T08:56:15;16.17;;;7.50;;
78027;SDS011;67235;45.638;11.714;2023-03-01T08:58:45;13.52;;;7.20;;
78027;SDS011;67235;45.638;11.714;2023-03-01T09:01:13;14.68;;;6.60;;
78027;SDS011;67235;45.638;11.714;2023-03-01T09:03:41;14.70;;;6.95;;
78027;SDS011;67235;45.638;11.714;2023-03-01T09:06:07;16.30;;;6.65;;
78027;SDS011;67235;45.638;11.714;2023-03-01T09:08:34;12.33;;;6.07;;
78027;SDS011;67235;45.638;11.714;2023-03-01T09:11:05;11.68;;;5.82;;
78027;SDS011;67235;45.638;11.714;2023-03-01T09:13:32;10.88;;;4.95;;
78027;SDS011;67235;45.638;11.714;2023-03-01T09:16:00;10.00;;;5.30;;
78027;SDS011;67235;45.638;11.714;2023-03-01T09:18:28;12.38;;;5.45;;
78027;SDS011;67235;45.638;11.714;2023-03-01T09:21:03;11.83;;;5.83;;
78027;SDS011;67235;45.638;11.714;2023-03-01T09:23:34;10.80;;;5.15;;
78027;SDS011;67235;45.638;11.714;2023-03-01T09:26:04;11.48;;;5.05;;
78027;SDS011;67235;45.638;11.714;2023-03-01T09:28:35;10.20;;;4.80;;
78027;SDS011;67235;45.638;11.714;2023-03-01T09:31:02;11.93;;;5.13;;
78027;SDS011;67235;45.638;11.714;2023-03-01T09:33:28;10.43;;;5.60;;
78027;SDS011;67235;45.638;11.714;2023-03-01T09:36:01;9.45;;;5.07;;
78027;SDS011;67235;45.638;11.714;2023-03-01T09:38:30;11.20;;;5.13;;
78027;SDS011;67235;45.638;11.714;2023-03-01T09:40:56;12.93;;;5.05;;
78027;SDS011;67235;45.638;11.714;2023-03-01T09:46:19;8.90;;;4.87;;
78027;SDS011;67235;45.638;11.714;2023-03-01T09:51:34;8.98;;;4.45;;
78027;SDS011;67235;45.638;11.714;2023-03-01T09:54:02;10.10;;;4.90;;
78027;SDS011;67235;45.638;11.714;2023-03-01T09:56:34;8.50;;;4.45;;
78027;SDS011;67235;45.638;11.714;2023-03-01T10:07:04;8.32;;;4.03;;
78027;SDS011;67235;45.638;11.714;2023-03-01T10:09:51;10.98;;;4.70;;
78027;SDS011;67235;45.638;11.714;2023-03-01T10:12:19;10.23;;;4.47;;
78027;SDS011;67235;45.638;11.714;2023-03-01T10:14:59;8.40;;;3.95;;
78027;SDS011;67235;45.638;11.714;2023-03-01T10:23:25;9.48;;;3.40;;
78027;SDS011;67235;45.638;11.714;2023-03-01T10:30:50;8.43;;;3.13;;
78027;SDS011;67235;45.638;11.714;2023-03-01T10:33:22;8.37;;;2.77;;
78027;SDS011;67235;45.638;11.714;2023-03-01T10:35:50;9.85;;;2.80;;
78027;SDS011;67235;45.638;11.714;2023-03-01T10:38:17;6.32;;;2.78;;
78027;SDS011;67235;45.638;11.714;2023-03-01T10:40:57;7.03;;;2.97;;
78027;SDS011;67235;45.638;11.714;2023-03-01T10:43:28;9.68;;;3.60;;
78027;SDS011;67235;45.638;11.714;2023-03-01T10:51:45;7.28;;;2.80;;
78027;SDS011;67235;45.638;11.714;2023-03-01T10:54:20;8.00;;;3.40;;
78027;SDS011;67235;45.638;11.714;2023-03-01T10:56:54;7.03;;;3.00;;
78027;SDS011;67235;45.638;11.714;2023-03-01T10:59:26;8.70;;;3.70;;
78027;SDS011;67235;45.638;11.714;2023-03-01T11:04:36;7.75;;;3.05;;
78027;SDS011;67235;45.638;11.714;2023-03-01T11:07:02;7.95;;;3.30;;
78027;SDS011;67235;45.638;11.714;2023-03-01T11:09:32;8.57;;;3.80;;
78027;SDS011;67235;45.638;11.714;2023-03-01T11:12:05;10.55;;;3.50;;
78027;SDS011;67235;45.638;11.714;2023-03-01T11:14:45;7.38;;;3.63;;
78027;SDS011;67235;45.638;11.714;2023-03-01T11:17:23;10.98;;;3.00;;
78027;SDS011;67235;45.638;11.714;2023-03-01T11:20:34;10.43;;;3.53;;
78027;SDS011;67235;45.638;11.714;2023-03-01T11:22:47;10.27;;;3.47;;
78027;SDS011;67235;45.638;11.714;2023-03-01T11:25:23;12.23;;;3.85;;
78027;SDS011;67235;45.638;11.714;2023-03-01T11:27:56;9.90;;;3.80;;
78027;SDS011;67235;45.638;11.714;2023-03-01T11:30:34;8.82;;;3.28;;
78027;SDS011;67235;45.638;11.714;2023-03-01T11:33:04;9.48;;;3.70;;
78027;SDS011;67235;45.638;11.714;2023-03-01T11:35:42;10.47;;;3.70;;
78027;SDS011;67235;45.638;11.714;2023-03-01T11:38:23;13.38;;;4.00;;
78027;SDS011;67235;45.638;11.714;2023-03-01T11:40:59;8.60;;;2.53;;
78027;SDS011;67235;45.638;11.714;2023-03-01T11:43:44;10.23;;;3.42;;
78027;SDS011;67235;45.638;11.714;2023-03-01T11:51:25;9.15;;;2.63;;
78027;SDS011;67235;45.638;11.714;2023-03-01T11:54:13;14.35;;;2.65;;
78027;SDS011;67235;45.638;11.714;2023-03-01T12:13:36;9.55;;;3.20;;
78027;SDS011;67235;45.638;11.714;2023-03-01T12:36:25;6.95;;;2.65;;
78027;SDS011;67235;45.638;11.714;2023-03-01T12:39:18;13.10;;;3.47;;
78027;SDS011;67235;45.638;11.714;2023-03-01T12:50:11;10.98;;;3.63;;
78027;SDS011;67235;45.638;11.714;2023-03-01T12:53:02;11.87;;;3.63;;
78027;SDS011;67235;45.638;11.714;2023-03-01T12:55:36;9.07;;;3.28;;
78027;SDS011;67235;45.638;11.714;2023-03-01T13:01:08;9.43;;;3.97;;
78027;SDS011;67235;45.638;11.714;2023-03-01T13:04:03;7.20;;;2.60;;
78027;SDS011;67235;45.638;11.714;2023-03-01T13:15:34;9.85;;;3.40;;
78027;SDS011;67235;45.638;11.714;2023-03-01T13:20:52;10.15;;;3.15;;
78027;SDS011;67235;45.638;11.714;2023-03-01T13:23:26;7.57;;;2.80;;
78027;SDS011;67235;45.638;11.714;2023-03-01T13:26:11;9.35;;;3.10;;
78027;SDS011;67235;45.638;11.714;2023-03-01T13:31:10;9.60;;;3.53;;
78027;SDS011;67235;45.638;11.714;2023-03-01T13:34:04;10.05;;;3.70;;
78027;SDS011;67235;45.638;11.714;2023-03-01T13:36:49;9.88;;;3.25;;
78027;SDS011;67235;45.638;11.714;2023-03-01T13:39:32;11.57;;;3.78;;
78027;SDS011;67235;45.638;11.714;2023-03-01T13:42:28;9.75;;;4.03;;
78027;SDS011;67235;45.638;11.714;2023-03-01T13:47:58;11.10;;;3.72;;
78027;SDS011;67235;45.638;11.714;2023-03-01T13:50:33;9.25;;;4.03;;
78027;SDS011;67235;45.638;11.714;2023-03-01T13:53:14;11.27;;;4.10;;
78027;SDS011;67235;45.638;11.714;2023-03-01T13:55:52;8.57;;;3.60;;
78027;SDS011;67235;45.638;11.714;2023-03-01T13:58:24;8.90;;;3.40;;
78027;SDS011;67235;45.638;11.714;2023-03-01T14:01:29;13.20;;;3.75;;
78027;SDS011;67235;45.638;11.714;2023-03-01T14:06:50;10.55;;;3.58;;
78027;SDS011;67235;45.638;11.714;2023-03-01T14:09:34;10.07;;;3.85;;
78027;SDS011;67235;45.638;11.714;2023-03-01T14:12:12;9.40;;;3.50;;
78027;SDS011;67235;45.638;11.714;2023-03-01T14:14:58;10.48;;;3.92;;
78027;SDS011;67235;45.638;11.714;2023-03-01T14:20:00;12.57;;;4.55;;
78027;SDS011;67235;45.638;11.714;2023-03-01T14:22:47;10.40;;;4.43;;
78027;SDS011;67235;45.638;11.714;2023-03-01T14:28:03;10.65;;;4.63;;
78027;SDS011;67235;45.638;11.714;2023-03-01T14:30:41;10.13;;;4.50;;
78027;SDS011;67235;45.638;11.714;2023-03-01T14:36:12;13.67;;;4.03;;
78027;SDS011;67235;45.638;11.714;2023-03-01T14:41:33;11.55;;;4.57;;
78027;SDS011;67235;45.638;11.714;2023-03-01T14:44:04;11.50;;;4.28;;
78027;SDS011;67235;45.638;11.714;2023-03-01T14:46:37;9.68;;;4.03;;
78027;SDS011;67235;45.638;11.714;2023-03-01T14:49:15;9.03;;;3.87;;
78027;SDS011;67235;45.638;11.714;2023-03-01T14:52:03;12.13;;;4.47;;
78027;SDS011;67235;45.638;11.714;2023-03-01T14:54:42;10.18;;;4.70;;
78027;SDS011;67235;45.638;11.714;2023-03-01T14:57:16;11.35;;;4.60;;
78027;SDS011;67235;45.638;11.714;2023-03-01T14:59:52;12.18;;;4.40;;
78027;SDS011;67235;45.638;11.714;2023-03-01T15:02:24;9.43;;;3.23;;
78027;SDS011;67235;45.638;11.714;2023-03-01T15:04:55;9.38;;;3.72;;
78027;SDS011;67235;45.638;11.714;2023-03-01T15:07:25;12.43;;;4.20;;
78027;SDS011;67235;45.638;11.714;2023-03-01T15:09:59;11.40;;;4.35;;
78027;SDS011;67235;45.638;11.714;2023-03-01T15:14:57;12.53;;;4.53;;
78027;SDS011;67235;45.638;11.714;2023-03-01T15:17:33;11.88;;;4.47;;
78027;SDS011;67235;45.638;11.714;2023-03-01T15:20:16;16.00;;;5.82;;
78027;SDS011;67235;45.638;11.714;2023-03-01T15:22:46;12.55;;;5.35;;
78027;SDS011;67235;45.638;11.714;2023-03-01T15:25:16;15.60;;;6.05;;
78027;SDS011;67235;45.638;11.714;2023-03-01T15:27:47;13.27;;;6.07;;
78027;SDS011;67235;45.638;11.714;2023-03-01T15:30:17;11.15;;;5.90;;
78027;SDS011;67235;45.638;11.714;2023-03-01T15:35:53;16.52;;;7.57;;
78027;SDS011;67235;45.638;11.714;2023-03-01T15:38:33;13.02;;;6.05;;
78027;SDS011;67235;45.638;11.714;2023-03-01T15:41:21;12.87;;;6.30;;
78027;SDS011;67235;45.638;11.714;2023-03-01T15:43:47;15.27;;;5.78;;
78027;SDS011;67235;45.638;11.714;2023-03-01T15:46:16;12.70;;;6.03;;
78027;SDS011;67235;45.638;11.714;2023-03-01T15:48:52;14.68;;;6.38;;
78027;SDS011;67235;45.638;11.714;2023-03-01T15:51:22;10.63;;;5.60;;
78027;SDS011;67235;45.638;11.714;2023-03-01T15:53:54;12.03;;;5.87;;
78027;SDS011;67235;45.638;11.714;2023-03-01T15:56:21;14.48;;;5.45;;
78027;SDS011;67235;45.638;11.714;2023-03-01T15:58:47;14.85;;;5.55;;
78027;SDS011;67235;45.638;11.714;2023-03-01T16:01:14;11.73;;;5.32;;
78027;SDS011;67235;45.638;11.714;2023-03-01T16:03:44;14.00;;;6.22;;
78027;SDS011;67235;45.638;11.714;2023-03-01T16:06:10;12.97;;;5.90;;
78027;SDS011;67235;45.638;11.714;2023-03-01T16:08:37;17.05;;;7.20;;
78027;SDS011;67235;45.638;11.714;2023-03-01T16:11:14;15.77;;;6.93;;
78027;SDS011;67235;45.638;11.714;2023-03-01T16:13:42;14.90;;;7.00;;
78027;SDS011;67235;45.638;11.714;2023-03-01T16:16:09;12.88;;;6.32;;
78027;SDS011;67235;45.638;11.714;2023-03-01T16:18:40;13.20;;;5.73;;
78027;SDS011;67235;45.638;11.714;2023-03-01T16:21:09;11.00;;;5.43;;
78027;SDS011;67235;45.638;11.714;2023-03-01T16:23:45;9.80;;;4.47;;
78027;SDS011;67235;45.638;11.714;2023-03-01T16:26:11;10.18;;;4.63;;
78027;SDS011;67235;45.638;11.714;2023-03-01T16:28:38;7.30;;;2.95;;
78027;SDS011;67235;45.638;11.714;2023-03-01T16:31:05;7.90;;;2.97;;
78027;SDS011;67235;45.638;11.714;2023-03-01T16:33:31;10.55;;;3.35;;
78027;SDS011;67235;45.638;11.714;2023-03-01T16:35:59;7.90;;;2.83;;
78027;SDS011;67235;45.638;11.714;2023-03-01T16:38:34;7.22;;;2.97;;
78027;SDS011;67235;45.638;11.714;2023-03-01T16:41:00;7.90;;;3.23;;
78027;SDS011;67235;45.638;11.714;2023-03-01T16:43:26;6.93;;;2.97;;
78027;SDS011;67235;45.638;11.714;2023-03-01T16:45:52;9.27;;;2.83;;
78027;SDS011;67235;45.638;11.714;2023-03-01T16:48:18;9.18;;;3.50;;
78027;SDS011;67235;45.638;11.714;2023-03-01T16:50:44;11.10;;;4.18;;
78027;SDS011;67235;45.638;11.714;2023-03-01T16:53:10;12.70;;;5.43;;
78027;SDS011;67235;45.638;11.714;2023-03-01T16:55:36;12.57;;;5.95;;
78027;SDS011;67235;45.638;11.714;2023-03-01T16:58:02;10.15;;;4.65;;